sensor_id;sensor_type;location;lat;lon;timestamp;P1;durP1;ratioP1;P2;durP2;ratioP2
64789;SDS011;51223;51.816;5.862;2022-08-21T00:01:53;2.72;;;1.25;;
64789;SDS011;51223;51.816;5.862;2022-08-21T00:04:19;0.95;;;0.93;;
64789;SDS011;51223;51.816;5.862;2022-08-21T00:06:46;1.00;;;0.80;;
64789;SDS011;51223;51.816;5.862;2022-08-21T00:09:11;2.33;;;1.15;;
64789;SDS011;51223;51.816;5.862;2022-08-21T00:11:37;1.38;;;1.23;;
64789;SDS011;51223;51.816;5.862;2022-08-21T00:14:05;2.13;;;1.02;;
64789;SDS011;51223;51.816;5.862;2022-08-21T00:16:33;2.20;;;1.15;;
64789;SDS011;51223;51.816;5.862;2022-08-21T00:18:59;0.93;;;0.80;;
64789;SDS011;51223;51.816;5.862;2022-08-21T00:21:25;2.58;;;1.10;;
64789;SDS011;51223;51.816;5.862;2022-08-21T00:23:51;2.65;;;0.90;;
64789;SDS011;51223;51.816;5.862;2022-08-21T00:26:17;2.80;;;1.13;;
64789;SDS011;51223;51.816;5.862;2022-08-21T00:28:43;2.70;;;1.15;;
64789;SDS011;51223;51.816;5.862;2022-08-21T00:31:11;1.48;;;0.85;;
64789;SDS011;51223;51.816;5.862;2022-08-21T00:33:37;1.00;;;0.90;;
64789;SDS011;51223;51.816;5.862;2022-08-21T00:36:04;3.00;;;1.10;;
64789;SDS011;51223;51.816;5.862;2022-08-21T00:38:30;2.00;;;1.13;;
64789;SDS011;51223;51.816;5.862;2022-08-21T00:40:57;3.55;;;1.33;;
64789;SDS011;51223;51.816;5.862;2022-08-21T00:43:26;1.52;;;1.10;;
64789;SDS011;51223;51.816;5.862;2022-08-21T00:45:54;1.08;;;0.90;;
64789;SDS011;51223;51.816;5.862;2022-08-21T00:48:21;3.58;;;1.40;;
64789;SDS011;51223;51.816;5.862;2022-08-21T00:50:50;2.50;;;0.93;;
64789;SDS011;51223;51.816;5.862;2022-08-21T00:53:22;1.55;;;0.98;;
64789;SDS011;51223;51.816;5.862;2022-08-21T00:55:49;1.80;;;1.08;;
64789;SDS011;51223;51.816;5.862;2022-08-21T00:58:15;2.58;;;1.00;;
64789;SDS011;51223;51.816;5.862;2022-08-21T01:00:42;1.30;;;0.90;;
64789;SDS011;51223;51.816;5.862;2022-08-21T01:03:12;2.35;;;1.45;;
64789;SDS011;51223;51.816;5.862;2022-08-21T01:05:40;2.25;;;1.10;;
64789;SDS011;51223;51.816;5.862;2022-08-21T01:08:08;1.63;;;0.98;;
64789;SDS011;51223;51.816;5.862;2022-08-21T01:10:35;1.08;;;0.90;;
64789;SDS011;51223;51.816;5.862;2022-08-21T01:13:03;3.08;;;1.13;;
64789;SDS011;51223;51.816;5.862;2022-08-21T01:15:33;1.98;;;1.08;;
64789;SDS011;51223;51.816;5.862;2022-08-21T01:18:02;1.67;;;1.13;;
64789;SDS011;51223;51.816;5.862;2022-08-21T01:20:29;0.85;;;0.85;;
64789;SDS011;51223;51.816;5.862;2022-08-21T01:22:55;1.80;;;1.35;;
64789;SDS011;51223;51.816;5.862;2022-08-21T01:25:21;1.48;;;1.33;;
64789;SDS011;51223;51.816;5.862;2022-08-21T01:27:46;1.85;;;1.23;;
64789;SDS011;51223;51.816;5.862;2022-08-21T01:30:18;1.60;;;1.05;;
64789;SDS011;51223;51.816;5.862;2022-08-21T01:32:47;2.00;;;1.23;;
64789;SDS011;51223;51.816;5.862;2022-08-21T01:35:13;2.55;;;1.10;;
64789;SDS011;51223;51.816;5.862;2022-08-21T01:37:41;2.80;;;1.00;;
64789;SDS011;51223;51.816;5.862;2022-08-21T01:40:08;1.73;;;0.93;;
64789;SDS011;51223;51.816;5.862;2022-08-21T01:42:35;2.63;;;1.40;;
64789;SDS011;51223;51.816;5.862;2022-08-21T01:45:02;1.58;;;1.10;;
64789;SDS011;51223;51.816;5.862;2022-08-21T01:47:29;2.88;;;1.38;;
64789;SDS011;51223;51.816;5.862;2022-08-21T01:49:55;2.28;;;0.98;;
64789;SDS011;51223;51.816;5.862;2022-08-21T01:52:21;3.10;;;1.60;;
64789;SDS011;51223;51.816;5.862;2022-08-21T01:54:47;2.03;;;1.35;;
64789;SDS011;51223;51.816;5.862;2022-08-21T01:57:13;4.28;;;1.70;;
64789;SDS011;51223;51.816;5.862;2022-08-21T01:59:39;2.22;;;1.25;;
64789;SDS011;51223;51.816;5.862;2022-08-21T02:02:05;2.83;;;1.73;;
64789;SDS011;51223;51.816;5.862;2022-08-21T02:04:31;4.07;;;1.60;;
64789;SDS011;51223;51.816;5.862;2022-08-21T02:06:58;2.53;;;1.83;;
64789;SDS011;51223;51.816;5.862;2022-08-21T02:09:25;3.17;;;1.27;;
64789;SDS011;51223;51.816;5.862;2022-08-21T02:11:51;7.80;;;1.63;;
64789;SDS011;51223;51.816;5.862;2022-08-21T02:14:17;5.30;;;1.20;;
64789;SDS011;51223;51.816;5.862;2022-08-21T02:16:43;3.35;;;1.23;;
64789;SDS011;51223;51.816;5.862;2022-08-21T02:19:11;2.75;;;1.10;;
64789;SDS011;51223;51.816;5.862;2022-08-21T02:21:38;1.67;;;1.25;;
64789;SDS011;51223;51.816;5.862;2022-08-21T02:24:04;1.30;;;1.13;;
64789;SDS011;51223;51.816;5.862;2022-08-21T02:26:31;1.83;;;1.00;;
64789;SDS011;51223;51.816;5.862;2022-08-21T02:28:57;2.20;;;1.05;;
64789;SDS011;51223;51.816;5.862;2022-08-21T02:31:23;1.63;;;1.17;;
64789;SDS011;51223;51.816;5.862;2022-08-21T02:33:50;2.17;;;1.10;;
64789;SDS011;51223;51.816;5.862;2022-08-21T02:36:16;1.83;;;1.35;;
64789;SDS011;51223;51.816;5.862;2022-08-21T02:38:45;2.78;;;1.13;;
64789;SDS011;51223;51.816;5.862;2022-08-21T02:41:15;2.55;;;1.17;;
64789;SDS011;51223;51.816;5.862;2022-08-21T02:43:44;1.20;;;1.10;;
64789;SDS011;51223;51.816;5.862;2022-08-21T02:46:11;2.78;;;1.40;;
64789;SDS011;51223;51.816;5.862;2022-08-21T02:48:39;2.85;;;1.38;;
64789;SDS011;51223;51.816;5.862;2022-08-21T02:51:06;1.27;;;1.13;;
64789;SDS011;51223;51.816;5.862;2022-08-21T02:53:36;2.05;;;1.40;;
64789;SDS011;51223;51.816;5.862;2022-08-21T02:56:03;5.80;;;1.60;;
64789;SDS011;51223;51.816;5.862;2022-08-21T02:58:32;5.10;;;1.60;;
64789;SDS011;51223;51.816;5.862;2022-08-21T03:01:01;2.60;;;1.48;;
64789;SDS011;51223;51.816;5.862;2022-08-21T03:03:27;2.38;;;1.48;;
64789;SDS011;51223;51.816;5.862;2022-08-21T03:05:53;3.30;;;2.05;;
64789;SDS011;51223;51.816;5.862;2022-08-21T03:08:20;3.95;;;1.42;;
64789;SDS011;51223;51.816;5.862;2022-08-21T03:10:48;4.45;;;1.35;;
64789;SDS011;51223;51.816;5.862;2022-08-21T03:13:15;3.53;;;1.80;;
64789;SDS011;51223;51.816;5.862;2022-08-21T03:15:41;2.85;;;1.80;;
64789;SDS011;51223;51.816;5.862;2022-08-21T03:18:08;3.40;;;1.75;;
64789;SDS011;51223;51.816;5.862;2022-08-21T03:20:35;3.75;;;1.50;;
64789;SDS011;51223;51.816;5.862;2022-08-21T03:23:03;3.55;;;1.77;;
64789;SDS011;51223;51.816;5.862;2022-08-21T03:25:30;4.93;;;1.58;;
64789;SDS011;51223;51.816;5.862;2022-08-21T03:28:00;3.78;;;1.60;;
64789;SDS011;51223;51.816;5.862;2022-08-21T03:30:26;3.05;;;1.98;;
64789;SDS011;51223;51.816;5.862;2022-08-21T03:32:52;2.80;;;1.75;;
64789;SDS011;51223;51.816;5.862;2022-08-21T03:35:18;3.88;;;1.60;;
64789;SDS011;51223;51.816;5.862;2022-08-21T03:37:45;2.83;;;1.88;;
64789;SDS011;51223;51.816;5.862;2022-08-21T03:40:11;3.67;;;2.00;;
64789;SDS011;51223;51.816;5.862;2022-08-21T03:42:39;3.38;;;1.92;;
64789;SDS011;51223;51.816;5.862;2022-08-21T03:45:05;4.70;;;2.47;;
64789;SDS011;51223;51.816;5.862;2022-08-21T03:47:31;7.45;;;1.80;;
64789;SDS011;51223;51.816;5.862;2022-08-21T03:49:57;2.03;;;1.67;;
64789;SDS011;51223;51.816;5.862;2022-08-21T03:52:25;3.95;;;2.17;;
64789;SDS011;51223;51.816;5.862;2022-08-21T03:54:51;5.13;;;2.10;;
64789;SDS011;51223;51.816;5.862;2022-08-21T03:57:17;3.53;;;2.40;;
64789;SDS011;51223;51.816;5.862;2022-08-21T03:59:43;6.40;;;1.88;;
64789;SDS011;51223;51.816;5.862;2022-08-21T04:02:10;7.60;;;2.10;;
64789;SDS011;51223;51.816;5.862;2022-08-21T04:04:36;4.15;;;2.10;;
64789;SDS011;51223;51.816;5.862;2022-08-21T04:07:02;4.30;;;2.72;;
64789;SDS011;51223;51.816;5.862;2022-08-21T04:09:29;2.67;;;2.10;;
64789;SDS011;51223;51.816;5.862;2022-08-21T04:11:56;6.20;;;2.55;;
64789;SDS011;51223;51.816;5.862;2022-08-21T04:14:24;6.35;;;2.70;;
64789;SDS011;51223;51.816;5.862;2022-08-21T04:16:50;5.18;;;2.58;;
64789;SDS011;51223;51.816;5.862;2022-08-21T04:19:16;3.00;;;1.95;;
64789;SDS011;51223;51.816;5.862;2022-08-21T04:21:41;4.00;;;2.38;;
64789;SDS011;51223;51.816;5.862;2022-08-21T04:24:08;3.42;;;2.15;;
64789;SDS011;51223;51.816;5.862;2022-08-21T04:26:35;7.97;;;2.40;;
64789;SDS011;51223;51.816;5.862;2022-08-21T04:29:02;3.42;;;2.65;;
64789;SDS011;51223;51.816;5.862;2022-08-21T04:31:32;5.88;;;2.55;;
64789;SDS011;51223;51.816;5.862;2022-08-21T04:33:59;1.55;;;1.35;;
64789;SDS011;51223;51.816;5.862;2022-08-21T04:36:25;3.25;;;1.60;;
64789;SDS011;51223;51.816;5.862;2022-08-21T04:38:51;5.20;;;2.13;;
64789;SDS011;51223;51.816;5.862;2022-08-21T04:41:17;6.85;;;1.90;;
64789;SDS011;51223;51.816;5.862;2022-08-21T04:43:43;4.38;;;2.08;;
64789;SDS011;51223;51.816;5.862;2022-08-21T04:46:09;4.85;;;2.10;;
64789;SDS011;51223;51.816;5.862;2022-08-21T04:48:36;4.22;;;2.25;;
64789;SDS011;51223;51.816;5.862;2022-08-21T04:53:38;5.07;;;2.92;;
64789;SDS011;51223;51.816;5.862;2022-08-21T04:56:11;4.13;;;2.85;;
64789;SDS011;51223;51.816;5.862;2022-08-21T04:58:41;11.48;;;3.20;;
64789;SDS011;51223;51.816;5.862;2022-08-21T05:01:08;6.00;;;3.80;;
64789;SDS011;51223;51.816;5.862;2022-08-21T05:03:41;7.18;;;3.72;;
64789;SDS011;51223;51.816;5.862;2022-08-21T05:06:08;4.88;;;3.70;;
64789;SDS011;51223;51.816;5.862;2022-08-21T05:08:37;11.73;;;4.28;;
64789;SDS011;51223;51.816;5.862;2022-08-21T05:11:04;9.93;;;4.65;;
64789;SDS011;51223;51.816;5.862;2022-08-21T05:13:30;6.80;;;4.72;;
64789;SDS011;51223;51.816;5.862;2022-08-21T05:15:56;9.75;;;4.60;;
64789;SDS011;51223;51.816;5.862;2022-08-21T05:18:22;4.57;;;3.28;;
64789;SDS011;51223;51.816;5.862;2022-08-21T05:20:47;8.32;;;3.85;;
64789;SDS011;51223;51.816;5.862;2022-08-21T05:23:14;5.88;;;3.63;;
64789;SDS011;51223;51.816;5.862;2022-08-21T05:25:40;6.60;;;4.38;;
64789;SDS011;51223;51.816;5.862;2022-08-21T05:28:06;5.28;;;3.55;;
64789;SDS011;51223;51.816;5.862;2022-08-21T05:30:33;6.85;;;3.95;;
64789;SDS011;51223;51.816;5.862;2022-08-21T05:32:59;5.03;;;4.10;;
64789;SDS011;51223;51.816;5.862;2022-08-21T05:35:27;11.45;;;4.13;;
64789;SDS011;51223;51.816;5.862;2022-08-21T05:37:54;3.95;;;3.15;;
64789;SDS011;51223;51.816;5.862;2022-08-21T05:40:21;6.28;;;3.90;;
64789;SDS011;51223;51.816;5.862;2022-08-21T05:42:47;9.70;;;4.72;;
64789;SDS011;51223;51.816;5.862;2022-08-21T05:45:13;8.75;;;3.88;;
64789;SDS011;51223;51.816;5.862;2022-08-21T05:47:39;5.25;;;3.50;;
64789;SDS011;51223;51.816;5.862;2022-08-21T05:50:05;9.93;;;4.55;;
64789;SDS011;51223;51.816;5.862;2022-08-21T05:52:31;6.88;;;3.95;;
64789;SDS011;51223;51.816;5.862;2022-08-21T05:54:57;6.22;;;4.28;;
64789;SDS011;51223;51.816;5.862;2022-08-21T05:57:23;6.57;;;3.58;;
64789;SDS011;51223;51.816;5.862;2022-08-21T05:59:50;6.05;;;4.00;;
64789;SDS011;51223;51.816;5.862;2022-08-21T06:02:17;10.43;;;3.92;;
64789;SDS011;51223;51.816;5.862;2022-08-21T06:04:44;5.97;;;3.60;;
64789;SDS011;51223;51.816;5.862;2022-08-21T06:07:10;4.85;;;3.30;;
64789;SDS011;51223;51.816;5.862;2022-08-21T06:09:36;4.78;;;3.30;;
64789;SDS011;51223;51.816;5.862;2022-08-21T06:12:04;0.40;;;0.40;;
64789;SDS011;51223;51.816;5.862;2022-08-21T06:14:31;1.55;;;0.45;;
64789;SDS011;51223;51.816;5.862;2022-08-21T06:17:03;3.50;;;2.58;;
64789;SDS011;51223;51.816;5.862;2022-08-21T06:19:34;5.20;;;2.70;;
64789;SDS011;51223;51.816;5.862;2022-08-21T06:22:00;7.30;;;3.20;;
64789;SDS011;51223;51.816;5.862;2022-08-21T06:24:26;2.03;;;1.45;;
64789;SDS011;51223;51.816;5.862;2022-08-21T06:26:52;5.40;;;3.05;;
64789;SDS011;51223;51.816;5.862;2022-08-21T06:29:18;4.30;;;3.25;;
64789;SDS011;51223;51.816;5.862;2022-08-21T06:31:46;8.75;;;2.65;;
64789;SDS011;51223;51.816;5.862;2022-08-21T06:34:12;5.10;;;2.20;;
64789;SDS011;51223;51.816;5.862;2022-08-21T06:36:38;7.25;;;2.75;;
64789;SDS011;51223;51.816;5.862;2022-08-21T06:39:04;7.78;;;3.33;;
64789;SDS011;51223;51.816;5.862;2022-08-21T06:41:30;6.43;;;2.70;;
64789;SDS011;51223;51.816;5.862;2022-08-21T06:43:58;4.50;;;2.42;;
64789;SDS011;51223;51.816;5.862;2022-08-21T06:46:24;7.68;;;3.67;;
64789;SDS011;51223;51.816;5.862;2022-08-21T06:48:51;3.58;;;2.47;;
64789;SDS011;51223;51.816;5.862;2022-08-21T06:51:17;4.00;;;2.72;;
64789;SDS011;51223;51.816;5.862;2022-08-21T06:53:44;10.07;;;3.20;;
64789;SDS011;51223;51.816;5.862;2022-08-21T06:56:10;3.58;;;2.70;;
64789;SDS011;51223;51.816;5.862;2022-08-21T06:58:36;7.30;;;3.10;;
64789;SDS011;51223;51.816;5.862;2022-08-21T07:01:02;6.57;;;2.97;;
64789;SDS011;51223;51.816;5.862;2022-08-21T07:03:32;7.47;;;3.15;;
64789;SDS011;51223;51.816;5.862;2022-08-21T07:06:03;2.40;;;1.08;;
64789;SDS011;51223;51.816;5.862;2022-08-21T07:08:30;5.72;;;2.28;;
64789;SDS011;51223;51.816;5.862;2022-08-21T07:10:57;5.05;;;2.55;;
64789;SDS011;51223;51.816;5.862;2022-08-21T07:13:24;5.63;;;2.38;;
64789;SDS011;51223;51.816;5.862;2022-08-21T07:15:50;3.75;;;2.75;;
64789;SDS011;51223;51.816;5.862;2022-08-21T07:18:16;7.30;;;2.13;;
64789;SDS011;51223;51.816;5.862;2022-08-21T07:20:42;11.05;;;3.17;;
64789;SDS011;51223;51.816;5.862;2022-08-21T07:23:10;5.40;;;2.42;;
64789;SDS011;51223;51.816;5.862;2022-08-21T07:25:41;3.13;;;1.85;;
64789;SDS011;51223;51.816;5.862;2022-08-21T07:28:07;5.82;;;2.13;;
64789;SDS011;51223;51.816;5.862;2022-08-21T07:30:33;3.13;;;1.67;;
64789;SDS011;51223;51.816;5.862;2022-08-21T07:32:58;2.85;;;2.42;;
64789;SDS011;51223;51.816;5.862;2022-08-21T07:35:24;5.20;;;3.03;;
64789;SDS011;51223;51.816;5.862;2022-08-21T07:37:50;6.50;;;2.25;;
64789;SDS011;51223;51.816;5.862;2022-08-21T07:40:16;5.82;;;3.10;;
64789;SDS011;51223;51.816;5.862;2022-08-21T07:42:43;2.13;;;1.85;;
64789;SDS011;51223;51.816;5.862;2022-08-21T07:45:12;5.07;;;2.30;;
64789;SDS011;51223;51.816;5.862;2022-08-21T07:47:39;5.78;;;2.42;;
64789;SDS011;51223;51.816;5.862;2022-08-21T07:50:05;6.22;;;2.92;;
64789;SDS011;51223;51.816;5.862;2022-08-21T07:52:32;7.30;;;2.35;;
64789;SDS011;51223;51.816;5.862;2022-08-21T07:55:02;4.13;;;2.13;;
64789;SDS011;51223;51.816;5.862;2022-08-21T07:57:28;6.88;;;1.73;;
64789;SDS011;51223;51.816;5.862;2022-08-21T07:59:54;7.28;;;2.78;;
64789;SDS011;51223;51.816;5.862;2022-08-21T08:02:28;7.80;;;2.10;;
64789;SDS011;51223;51.816;5.862;2022-08-21T08:05:01;10.38;;;2.90;;
64789;SDS011;51223;51.816;5.862;2022-08-21T08:07:31;4.43;;;2.38;;
64789;SDS011;51223;51.816;5.862;2022-08-21T08:09:57;8.07;;;2.30;;
64789;SDS011;51223;51.816;5.862;2022-08-21T08:12:24;3.63;;;1.83;;
64789;SDS011;51223;51.816;5.862;2022-08-21T08:14:57;5.45;;;2.67;;
64789;SDS011;51223;51.816;5.862;2022-08-21T08:17:24;9.98;;;3.30;;
64789;SDS011;51223;51.816;5.862;2022-08-21T08:19:50;4.60;;;1.75;;
64789;SDS011;51223;51.816;5.862;2022-08-21T08:22:17;10.93;;;2.60;;
64789;SDS011;51223;51.816;5.862;2022-08-21T08:24:46;3.58;;;1.55;;
64789;SDS011;51223;51.816;5.862;2022-08-21T08:27:12;2.60;;;1.83;;
64789;SDS011;51223;51.816;5.862;2022-08-21T08:29:38;4.55;;;2.03;;
64789;SDS011;51223;51.816;5.862;2022-08-21T08:32:04;12.25;;;2.30;;
64789;SDS011;51223;51.816;5.862;2022-08-21T08:34:33;10.27;;;1.70;;
64789;SDS011;51223;51.816;5.862;2022-08-21T08:36:59;11.25;;;2.65;;
64789;SDS011;51223;51.816;5.862;2022-08-21T08:39:25;7.97;;;2.92;;
64789;SDS011;51223;51.816;5.862;2022-08-21T08:42:00;10.10;;;2.10;;
64789;SDS011;51223;51.816;5.862;2022-08-21T08:44:31;3.78;;;1.65;;
64789;SDS011;51223;51.816;5.862;2022-08-21T08:46:57;5.40;;;1.40;;
64789;SDS011;51223;51.816;5.862;2022-08-21T08:49:31;5.35;;;1.98;;
64789;SDS011;51223;51.816;5.862;2022-08-21T08:52:15;4.55;;;1.63;;
64789;SDS011;51223;51.816;5.862;2022-08-21T08:54:48;2.47;;;1.27;;
64789;SDS011;51223;51.816;5.862;2022-08-21T08:57:23;1.17;;;0.65;;
64789;SDS011;51223;51.816;5.862;2022-08-21T08:59:51;5.13;;;1.30;;
64789;SDS011;51223;51.816;5.862;2022-08-21T09:02:20;9.30;;;2.05;;
64789;SDS011;51223;51.816;5.862;2022-08-21T09:04:49;9.15;;;1.45;;
64789;SDS011;51223;51.816;5.862;2022-08-21T09:07:35;1.65;;;1.17;;
64789;SDS011;51223;51.816;5.862;2022-08-21T09:10:21;1.90;;;1.10;;
64789;SDS011;51223;51.816;5.862;2022-08-21T09:23:55;1.25;;;0.47;;
64789;SDS011;51223;51.816;5.862;2022-08-21T09:26:27;6.03;;;1.65;;
64789;SDS011;51223;51.816;5.862;2022-08-21T09:28:59;0.32;;;0.32;;
64789;SDS011;51223;51.816;5.862;2022-08-21T09:31:27;1.02;;;0.77;;
64789;SDS011;51223;51.816;5.862;2022-08-21T09:33:59;5.55;;;1.52;;
64789;SDS011;51223;51.816;5.862;2022-08-21T09:39:25;2.78;;;1.13;;
64789;SDS011;51223;51.816;5.862;2022-08-21T09:42:00;2.38;;;0.90;;
64789;SDS011;51223;51.816;5.862;2022-08-21T09:44:29;2.17;;;1.05;;
64789;SDS011;51223;51.816;5.862;2022-08-21T09:46:57;1.92;;;0.88;;
64789;SDS011;51223;51.816;5.862;2022-08-21T09:49:29;2.42;;;0.95;;
64789;SDS011;51223;51.816;5.862;2022-08-21T09:54:29;3.30;;;0.93;;
64789;SDS011;51223;51.816;5.862;2022-08-21T09:56:59;1.90;;;1.00;;
64789;SDS011;51223;51.816;5.862;2022-08-21T09:59:49;2.55;;;0.80;;
64789;SDS011;51223;51.816;5.862;2022-08-21T10:02:21;3.70;;;1.15;;
64789;SDS011;51223;51.816;5.862;2022-08-21T10:07:44;2.75;;;0.80;;
64789;SDS011;51223;51.816;5.862;2022-08-21T10:10:14;4.55;;;0.93;;
64789;SDS011;51223;51.816;5.862;2022-08-21T10:26:43;7.32;;;1.42;;
64789;SDS011;51223;51.816;5.862;2022-08-21T10:29:19;1.30;;;0.70;;
64789;SDS011;51223;51.816;5.862;2022-08-21T10:34:57;0.93;;;0.88;;
64789;SDS011;51223;51.816;5.862;2022-08-21T10:43:36;2.50;;;0.95;;
64789;SDS011;51223;51.816;5.862;2022-08-21T10:46:15;2.08;;;0.88;;
64789;SDS011;51223;51.816;5.862;2022-08-21T10:48:54;6.57;;;1.85;;
64789;SDS011;51223;51.816;5.862;2022-08-21T10:54:26;0.65;;;0.47;;
64789;SDS011;51223;51.816;5.862;2022-08-21T10:57:02;3.63;;;1.15;;
64789;SDS011;51223;51.816;5.862;2022-08-21T10:59:44;3.40;;;1.08;;
64789;SDS011;51223;51.816;5.862;2022-08-21T11:02:22;0.88;;;0.60;;
64789;SDS011;51223;51.816;5.862;2022-08-21T11:05:01;1.40;;;0.88;;
64789;SDS011;51223;51.816;5.862;2022-08-21T11:10:04;2.20;;;1.02;;
64789;SDS011;51223;51.816;5.862;2022-08-21T11:12:40;1.23;;;0.90;;
64789;SDS011;51223;51.816;5.862;2022-08-21T11:18:17;3.67;;;1.30;;
64789;SDS011;51223;51.816;5.862;2022-08-21T11:20:49;3.03;;;0.70;;
64789;SDS011;51223;51.816;5.862;2022-08-21T11:23:26;5.25;;;1.30;;
64789;SDS011;51223;51.816;5.862;2022-08-21T11:26:03;1.88;;;0.90;;
64789;SDS011;51223;51.816;5.862;2022-08-21T11:28:36;5.40;;;0.75;;
64789;SDS011;51223;51.816;5.862;2022-08-21T11:33:53;2.30;;;0.93;;
64789;SDS011;51223;51.816;5.862;2022-08-21T11:36:36;1.30;;;1.10;;
64789;SDS011;51223;51.816;5.862;2022-08-21T11:39:21;2.70;;;1.23;;
64789;SDS011;51223;51.816;5.862;2022-08-21T11:42:01;2.60;;;1.00;;
64789;SDS011;51223;51.816;5.862;2022-08-21T11:50:37;3.20;;;0.95;;
64789;SDS011;51223;51.816;5.862;2022-08-21T11:53:17;2.47;;;1.00;;
64789;SDS011;51223;51.816;5.862;2022-08-21T11:55:51;3.45;;;0.50;;
64789;SDS011;51223;51.816;5.862;2022-08-21T11:58:23;2.85;;;1.17;;
64789;SDS011;51223;51.816;5.862;2022-08-21T12:00:55;7.43;;;1.20;;
64789;SDS011;51223;51.816;5.862;2022-08-21T12:03:30;4.45;;;1.00;;
64789;SDS011;51223;51.816;5.862;2022-08-21T12:06:08;2.53;;;0.75;;
64789;SDS011;51223;51.816;5.862;2022-08-21T12:08:37;1.25;;;0.85;;
64789;SDS011;51223;51.816;5.862;2022-08-21T12:13:59;2.42;;;0.95;;
64789;SDS011;51223;51.816;5.862;2022-08-21T12:16:39;2.60;;;1.13;;
64789;SDS011;51223;51.816;5.862;2022-08-21T12:19:07;2.92;;;1.10;;
64789;SDS011;51223;51.816;5.862;2022-08-21T12:21:47;3.05;;;1.05;;
64789;SDS011;51223;51.816;5.862;2022-08-21T12:32:00;0.55;;;0.55;;
64789;SDS011;51223;51.816;5.862;2022-08-21T12:34:30;8.20;;;1.33;;
64789;SDS011;51223;51.816;5.862;2022-08-21T12:37:07;2.38;;;1.08;;
64789;SDS011;51223;51.816;5.862;2022-08-21T12:39:44;0.90;;;0.40;;
64789;SDS011;51223;51.816;5.862;2022-08-21T12:44:49;6.68;;;1.33;;
64789;SDS011;51223;51.816;5.862;2022-08-21T12:49:54;4.55;;;1.45;;
64789;SDS011;51223;51.816;5.862;2022-08-21T12:52:44;2.33;;;1.08;;
64789;SDS011;51223;51.816;5.862;2022-08-21T12:55:24;1.08;;;0.88;;
64789;SDS011;51223;51.816;5.862;2022-08-21T12:57:52;4.35;;;1.17;;
64789;SDS011;51223;51.816;5.862;2022-08-21T13:00:20;3.20;;;1.20;;
64789;SDS011;51223;51.816;5.862;2022-08-21T13:02:49;0.40;;;0.40;;
64789;SDS011;51223;51.816;5.862;2022-08-21T13:08:07;1.08;;;0.55;;
64789;SDS011;51223;51.816;5.862;2022-08-21T13:10:37;3.78;;;1.15;;
64789;SDS011;51223;51.816;5.862;2022-08-21T13:13:06;0.50;;;0.50;;
64789;SDS011;51223;51.816;5.862;2022-08-21T13:15:39;2.10;;;1.20;;
64789;SDS011;51223;51.816;5.862;2022-08-21T13:18:06;6.57;;;1.00;;
64789;SDS011;51223;51.816;5.862;2022-08-21T13:23:01;2.85;;;1.30;;
64789;SDS011;51223;51.816;5.862;2022-08-21T13:25:48;3.88;;;0.60;;
64789;SDS011;51223;51.816;5.862;2022-08-21T13:28:14;2.03;;;0.80;;
64789;SDS011;51223;51.816;5.862;2022-08-21T13:30:44;4.20;;;1.02;;
64789;SDS011;51223;51.816;5.862;2022-08-21T13:33:13;0.60;;;0.55;;
64789;SDS011;51223;51.816;5.862;2022-08-21T13:35:47;5.30;;;0.85;;
64789;SDS011;51223;51.816;5.862;2022-08-21T13:38:34;0.10;;;0.10;;
64789;SDS011;51223;51.816;5.862;2022-08-21T13:41:03;4.22;;;1.45;;
64789;SDS011;51223;51.816;5.862;2022-08-21T13:43:35;0.68;;;0.68;;
64789;SDS011;51223;51.816;5.862;2022-08-21T13:46:02;2.65;;;0.90;;
64789;SDS011;51223;51.816;5.862;2022-08-21T13:48:34;1.75;;;0.60;;
64789;SDS011;51223;51.816;5.862;2022-08-21T13:51:01;1.10;;;0.70;;
64789;SDS011;51223;51.816;5.862;2022-08-21T13:54:02;2.05;;;0.70;;
64789;SDS011;51223;51.816;5.862;2022-08-21T13:56:43;3.33;;;0.50;;
64789;SDS011;51223;51.816;5.862;2022-08-21T13:59:09;2.53;;;0.85;;
64789;SDS011;51223;51.816;5.862;2022-08-21T14:01:36;1.90;;;0.90;;
64789;SDS011;51223;51.816;5.862;2022-08-21T14:04:07;2.90;;;0.90;;
64789;SDS011;51223;51.816;5.862;2022-08-21T14:06:42;3.10;;;0.93;;
64789;SDS011;51223;51.816;5.862;2022-08-21T14:09:09;4.60;;;1.33;;
64789;SDS011;51223;51.816;5.862;2022-08-21T14:11:37;1.00;;;0.60;;
64789;SDS011;51223;51.816;5.862;2022-08-21T14:14:05;0.57;;;0.57;;
64789;SDS011;51223;51.816;5.862;2022-08-21T14:17:12;4.15;;;1.08;;
64789;SDS011;51223;51.816;5.862;2022-08-21T14:19:50;4.22;;;1.17;;
64789;SDS011;51223;51.816;5.862;2022-08-21T14:22:23;0.98;;;0.60;;
64789;SDS011;51223;51.816;5.862;2022-08-21T14:25:05;1.83;;;0.75;;
64789;SDS011;51223;51.816;5.862;2022-08-21T14:33:02;0.40;;;0.40;;
64789;SDS011;51223;51.816;5.862;2022-08-21T14:35:29;2.25;;;0.88;;
64789;SDS011;51223;51.816;5.862;2022-08-21T14:37:56;1.13;;;0.50;;
64789;SDS011;51223;51.816;5.862;2022-08-21T14:40:23;2.60;;;0.70;;
64789;SDS011;51223;51.816;5.862;2022-08-21T14:42:50;0.88;;;0.50;;
64789;SDS011;51223;51.816;5.862;2022-08-21T14:45:17;2.38;;;1.13;;
64789;SDS011;51223;51.816;5.862;2022-08-21T14:47:50;3.20;;;1.30;;
64789;SDS011;51223;51.816;5.862;2022-08-21T14:50:16;2.70;;;1.00;;
64789;SDS011;51223;51.816;5.862;2022-08-21T14:52:42;3.60;;;0.68;;
64789;SDS011;51223;51.816;5.862;2022-08-21T14:55:10;5.65;;;1.25;;
64789;SDS011;51223;51.816;5.862;2022-08-21T14:57:39;3.70;;;0.65;;
64789;SDS011;51223;51.816;5.862;2022-08-21T15:00:09;1.00;;;0.73;;
64789;SDS011;51223;51.816;5.862;2022-08-21T15:02:36;1.40;;;0.63;;
64789;SDS011;51223;51.816;5.862;2022-08-21T15:05:03;2.92;;;1.20;;
64789;SDS011;51223;51.816;5.862;2022-08-21T15:07:30;2.47;;;0.70;;
64789;SDS011;51223;51.816;5.862;2022-08-21T15:09:55;2.08;;;0.80;;
64789;SDS011;51223;51.816;5.862;2022-08-21T15:12:22;1.95;;;0.80;;
64789;SDS011;51223;51.816;5.862;2022-08-21T15:14:49;1.95;;;0.70;;
64789;SDS011;51223;51.816;5.862;2022-08-21T15:17:15;3.75;;;0.90;;
64789;SDS011;51223;51.816;5.862;2022-08-21T15:19:40;1.05;;;0.65;;
64789;SDS011;51223;51.816;5.862;2022-08-21T15:22:06;5.38;;;1.05;;
64789;SDS011;51223;51.816;5.862;2022-08-21T15:24:32;4.90;;;1.20;;
64789;SDS011;51223;51.816;5.862;2022-08-21T15:26:59;2.42;;;0.80;;
64789;SDS011;51223;51.816;5.862;2022-08-21T15:29:26;1.90;;;1.05;;
64789;SDS011;51223;51.816;5.862;2022-08-21T15:32:02;6.80;;;1.15;;
64789;SDS011;51223;51.816;5.862;2022-08-21T15:34:40;5.68;;;0.98;;
64789;SDS011;51223;51.816;5.862;2022-08-21T15:37:06;1.80;;;0.65;;
64789;SDS011;51223;51.816;5.862;2022-08-21T15:39:34;0.70;;;0.50;;
64789;SDS011;51223;51.816;5.862;2022-08-21T15:42:00;0.55;;;0.55;;
64789;SDS011;51223;51.816;5.862;2022-08-21T15:44:27;2.90;;;0.98;;
64789;SDS011;51223;51.816;5.862;2022-08-21T15:46:54;0.73;;;0.45;;
64789;SDS011;51223;51.816;5.862;2022-08-21T15:49:21;4.93;;;2.80;;
64789;SDS011;51223;51.816;5.862;2022-08-21T15:51:47;8.85;;;4.75;;
64789;SDS011;51223;51.816;5.862;2022-08-21T15:54:13;6.15;;;2.85;;
64789;SDS011;51223;51.816;5.862;2022-08-21T15:56:39;1.52;;;1.20;;
64789;SDS011;51223;51.816;5.862;2022-08-21T15:59:09;2.30;;;1.35;;
64789;SDS011;51223;51.816;5.862;2022-08-21T16:01:39;4.50;;;1.10;;
64789;SDS011;51223;51.816;5.862;2022-08-21T16:04:05;1.38;;;0.60;;
64789;SDS011;51223;51.816;5.862;2022-08-21T16:06:32;3.10;;;0.80;;
64789;SDS011;51223;51.816;5.862;2022-08-21T16:08:59;1.48;;;0.88;;
64789;SDS011;51223;51.816;5.862;2022-08-21T16:11:25;3.22;;;1.27;;
64789;SDS011;51223;51.816;5.862;2022-08-21T16:13:52;3.95;;;1.08;;
64789;SDS011;51223;51.816;5.862;2022-08-21T16:16:20;1.60;;;1.00;;
64789;SDS011;51223;51.816;5.862;2022-08-21T16:18:47;4.35;;;0.90;;
64789;SDS011;51223;51.816;5.862;2022-08-21T16:21:15;1.90;;;0.90;;
64789;SDS011;51223;51.816;5.862;2022-08-21T16:23:41;2.60;;;1.30;;
64789;SDS011;51223;51.816;5.862;2022-08-21T16:26:07;2.70;;;1.00;;
64789;SDS011;51223;51.816;5.862;2022-08-21T16:28:34;3.85;;;1.08;;